createdAt,value
2022-09-15T00:01:15.474Z,9.20
2022-09-15T00:03:43.139Z,7.93
2022-09-15T00:06:11.057Z,8.40
2022-09-15T00:08:39.313Z,7.35
2022-09-15T00:11:17.571Z,6.72
2022-09-15T00:13:45.614Z,5.82
2022-09-15T00:16:15.499Z,5.85
2022-09-15T00:18:44.939Z,7.43
2022-09-15T00:21:15.771Z,7.80
2022-09-15T00:23:43.952Z,6.75
2022-09-15T00:26:13.906Z,7.13
2022-09-15T00:28:41.907Z,7.35
2022-09-15T00:31:13.130Z,7.68
2022-09-15T00:33:41.009Z,8.07
2022-09-15T00:36:11.459Z,6.97
2022-09-15T00:38:39.125Z,7.63
2022-09-15T00:41:08.456Z,7.72
2022-09-15T00:43:50.427Z,8.65
2022-09-15T00:46:40.594Z,8.95
2022-09-15T00:49:34.669Z,9.25
2022-09-15T00:52:13.386Z,8.48
2022-09-15T00:55:02.630Z,9.65
2022-09-15T00:57:58.764Z,10.02
2022-09-15T01:00:28.193Z,9.50
2022-09-15T01:02:57.476Z,9.70
2022-09-15T01:05:48.014Z,9.35
2022-09-15T01:08:22.470Z,9.80
2022-09-15T01:10:52.049Z,10.35
2022-09-15T01:13:19.468Z,10.23
2022-09-15T01:15:58.469Z,9.90
2022-09-15T01:18:48.800Z,9.30
2022-09-15T01:21:29.232Z,9.77
2022-09-15T01:24:14.222Z,9.45
2022-09-15T01:26:57.737Z,9.45
2022-09-15T01:29:43.288Z,9.45
2022-09-15T01:32:53.759Z,8.82
2022-09-15T01:35:25.026Z,8.80
2022-09-15T01:38:18.349Z,7.97
2022-09-15T01:41:12.592Z,7.70
2022-09-15T01:43:56.144Z,8.30
2022-09-15T01:46:26.229Z,8.40
2022-09-15T01:48:56.491Z,8.20
2022-09-15T01:51:26.791Z,8.07
2022-09-15T01:53:55.748Z,8.52
2022-09-15T01:56:23.234Z,8.13
2022-09-15T01:58:51.445Z,8.25
2022-09-15T02:01:29.706Z,8.25
2022-09-15T02:04:06.949Z,8.82
2022-09-15T02:06:39.349Z,8.52
2022-09-15T02:09:15.237Z,8.93
2022-09-15T02:12:02.891Z,7.82
2022-09-15T02:15:03.299Z,8.40
2022-09-15T02:17:36.129Z,8.15
2022-09-15T02:20:17.851Z,7.93
2022-09-15T02:22:50.403Z,8.80
2022-09-15T02:25:23.903Z,8.75
2022-09-15T02:27:55.112Z,9.13
2022-09-15T02:30:23.420Z,8.98
2022-09-15T02:32:56.491Z,9.93
2022-09-15T02:35:26.954Z,9.80
2022-09-15T02:37:56.181Z,9.38
2022-09-15T02:40:24.030Z,8.65
2022-09-15T02:42:56.265Z,10.15
2022-09-15T02:45:26.976Z,8.30
2022-09-15T02:47:54.643Z,8.50
2022-09-15T02:50:22.385Z,8.75
2022-09-15T02:52:49.797Z,8.95
2022-09-15T02:55:17.195Z,7.72
2022-09-15T02:57:44.505Z,7.93
2022-09-15T03:00:13.785Z,7.82
2022-09-15T03:02:42.238Z,7.57
2022-09-15T03:05:10.298Z,9.70
2022-09-15T03:07:38.517Z,9.32
2022-09-15T03:10:07.383Z,7.68
2022-09-15T03:12:42.757Z,7.55
2022-09-15T03:15:12.289Z,8.13
2022-09-15T03:17:41.711Z,7.93
2022-09-15T03:20:12.094Z,7.22
2022-09-15T03:22:39.473Z,8.10
2022-09-15T03:25:07.862Z,7.65
2022-09-15T03:27:36.126Z,7.32
2022-09-15T03:30:05.234Z,7.75
2022-09-15T03:32:32.592Z,7.00
2022-09-15T03:34:59.999Z,7.88
2022-09-15T03:37:27.857Z,7.57
2022-09-15T03:39:55.997Z,7.65
2022-09-15T03:42:23.569Z,7.80
2022-09-15T03:44:50.940Z,7.30
2022-09-15T03:47:18.310Z,7.45
2022-09-15T03:49:45.699Z,8.18
2022-09-15T03:52:13.041Z,9.23
2022-09-15T03:54:41.455Z,7.50
2022-09-15T03:57:08.862Z,7.75
2022-09-15T03:59:36.312Z,7.05
2022-09-15T04:02:03.873Z,6.97
2022-09-15T04:04:32.112Z,8.05
2022-09-15T04:06:59.729Z,8.38
2022-09-15T04:09:27.240Z,7.20
2022-09-15T04:11:54.638Z,7.22
2022-09-15T04:14:21.960Z,7.00
2022-09-15T04:16:49.388Z,8.15
2022-09-15T04:19:16.777Z,7.90
2022-09-15T04:21:45.736Z,7.72
2022-09-15T04:24:13.469Z,7.65
2022-09-15T04:26:40.816Z,8.13
2022-09-15T04:29:14.257Z,8.70
2022-09-15T04:31:42.183Z,8.32
2022-09-15T04:34:10.186Z,7.95
2022-09-15T04:36:37.673Z,8.43
2022-09-15T04:39:06.683Z,8.23
2022-09-15T04:41:34.179Z,6.57
2022-09-15T04:44:02.182Z,7.75
2022-09-15T04:46:29.586Z,6.07
2022-09-15T04:48:57.543Z,5.72
2022-09-15T04:51:25.563Z,6.10
2022-09-15T04:53:53.463Z,4.90
2022-09-15T04:56:24.434Z,5.50
2022-09-15T04:59:01.097Z,5.10
2022-09-15T05:01:34.375Z,4.55
2022-09-15T05:04:04.080Z,4.75
2022-09-15T05:06:32.342Z,5.38
2022-09-15T05:08:59.750Z,5.15
2022-09-15T05:11:28.347Z,4.90
2022-09-15T05:13:55.747Z,5.13
2022-09-15T05:16:29.894Z,5.00
2022-09-15T05:19:00.107Z,4.80
2022-09-15T05:21:28.002Z,5.47
2022-09-15T05:23:55.588Z,5.15
2022-09-15T05:26:29.007Z,5.30
2022-09-15T05:28:57.690Z,4.97
2022-09-15T05:31:27.879Z,4.30
2022-09-15T05:33:55.364Z,4.50
2022-09-15T05:36:25.416Z,5.10
2022-09-15T05:38:54.249Z,5.45
2022-09-15T05:41:21.925Z,5.38
2022-09-15T05:43:50.845Z,6.00
2022-09-15T05:46:20.555Z,4.95
2022-09-15T05:48:48.132Z,4.88
2022-09-15T05:51:15.735Z,5.35
2022-09-15T05:53:43.283Z,5.20
2022-09-15T05:56:13.951Z,5.40
2022-09-15T05:58:43.150Z,6.93
2022-09-15T06:01:22.937Z,5.90
2022-09-15T06:03:50.830Z,4.80
2022-09-15T06:06:18.742Z,5.63
2022-09-15T06:08:51.869Z,6.00
2022-09-15T06:11:30.300Z,5.93
2022-09-15T06:14:06.015Z,5.47
2022-09-15T06:16:35.543Z,5.72
2022-09-15T06:19:03.444Z,5.82
2022-09-15T06:21:32.398Z,5.80
2022-09-15T06:24:03.272Z,5.70
2022-09-15T06:26:30.770Z,5.43
2022-09-15T06:29:02.908Z,5.38
2022-09-15T06:34:03.062Z,6.15
2022-09-15T06:36:31.141Z,6.15
2022-09-15T06:38:59.593Z,5.65
2022-09-15T06:41:38.172Z,7.05
2022-09-15T06:44:21.529Z,7.18
2022-09-15T06:46:50.344Z,7.55
2022-09-15T06:49:17.898Z,8.32
2022-09-15T06:51:45.550Z,7.90
2022-09-15T06:54:14.610Z,8.38
2022-09-15T06:56:42.658Z,8.07
2022-09-15T06:59:13.707Z,9.95
2022-09-15T07:01:41.507Z,9.10
2022-09-15T07:04:10.125Z,8.68
2022-09-15T07:06:39.385Z,8.52
2022-09-15T07:09:07.160Z,9.10
2022-09-15T07:11:34.696Z,8.63
2022-09-15T07:14:02.261Z,8.48
2022-09-15T07:16:30.567Z,16.80
2022-09-15T07:19:00.557Z,18.90
2022-09-15T07:21:28.423Z,18.45
2022-09-15T07:23:57.433Z,21.83
2022-09-15T07:26:27.426Z,25.88
2022-09-15T07:29:00.352Z,26.25
2022-09-15T07:31:31.803Z,26.90
2022-09-15T07:34:00.040Z,27.58
2022-09-15T07:36:27.491Z,28.02
2022-09-15T07:38:54.841Z,23.65
2022-09-15T07:41:24.957Z,23.20
2022-09-15T07:43:54.666Z,22.75
2022-09-15T07:46:23.840Z,17.75
2022-09-15T07:48:56.323Z,17.77
2022-09-15T07:51:24.996Z,15.45
2022-09-15T07:53:52.973Z,13.63
2022-09-15T07:56:20.978Z,12.93
2022-09-15T07:58:49.406Z,13.32
2022-09-15T08:01:18.206Z,13.07
2022-09-15T08:03:48.902Z,12.57
2022-09-15T08:06:19.490Z,10.82
2022-09-15T08:08:47.418Z,10.68
2022-09-15T08:11:19.736Z,10.23
2022-09-15T08:13:49.434Z,10.88
2022-09-15T08:16:20.400Z,9.40
2022-09-15T08:18:49.153Z,9.45
2022-09-15T08:21:20.213Z,8.98
2022-09-15T08:23:56.184Z,9.70
2022-09-15T08:26:25.444Z,10.10
2022-09-15T08:28:53.330Z,10.18
2022-09-15T08:31:21.132Z,11.02
2022-09-15T08:33:53.608Z,12.02
2022-09-15T08:36:21.288Z,10.70
2022-09-15T08:38:48.866Z,9.90
2022-09-15T08:41:24.473Z,10.90
2022-09-15T08:43:59.353Z,10.85
2022-09-15T08:46:37.186Z,11.88
2022-09-15T08:49:50.110Z,10.63
2022-09-15T08:52:37.965Z,10.15
2022-09-15T08:55:14.727Z,10.43
2022-09-15T08:57:42.234Z,10.10
2022-09-15T09:00:16.787Z,11.52
2022-09-15T09:03:21.663Z,10.52
2022-09-15T09:06:20.104Z,11.20
2022-09-15T09:08:50.497Z,10.90
2022-09-15T09:11:52.678Z,11.45
2022-09-15T09:14:38.206Z,11.00
2022-09-15T09:17:05.564Z,9.80
2022-09-15T09:19:42.022Z,9.77
2022-09-15T09:22:17.828Z,9.68
2022-09-15T09:24:48.283Z,7.45
2022-09-15T09:27:24.330Z,7.55
2022-09-15T09:30:10.860Z,7.45
2022-09-15T09:32:46.286Z,5.90
2022-09-15T09:35:24.945Z,5.95
2022-09-15T09:37:53.522Z,5.07
2022-09-15T09:40:21.574Z,5.10
2022-09-15T09:42:49.303Z,4.78
2022-09-15T09:45:18.693Z,4.80
2022-09-15T09:47:49.048Z,4.63
2022-09-15T09:50:43.208Z,4.70
2022-09-15T09:53:31.072Z,5.20
2022-09-15T09:56:23.928Z,4.32
2022-09-15T09:58:52.058Z,3.40
2022-09-15T10:01:21.816Z,3.88
2022-09-15T10:03:49.330Z,4.07
2022-09-15T10:06:19.064Z,4.43
2022-09-15T10:08:56.347Z,4.53
2022-09-15T10:11:42.015Z,4.38
2022-09-15T10:14:20.051Z,4.07
2022-09-15T10:17:04.273Z,4.00
2022-09-15T10:19:36.631Z,4.05
2022-09-15T10:22:05.130Z,3.38
2022-09-15T10:24:42.286Z,3.45
2022-09-15T10:27:26.240Z,3.05
2022-09-15T10:29:54.572Z,2.85
2022-09-15T10:32:31.579Z,2.65
2022-09-15T10:35:13.008Z,3.00
2022-09-15T10:37:58.906Z,3.67
2022-09-15T10:40:50.971Z,2.75
2022-09-15T10:43:18.322Z,3.50
2022-09-15T10:45:49.151Z,3.80
2022-09-15T10:48:45.444Z,3.50
2022-09-15T10:51:31.076Z,3.13
2022-09-15T10:54:13.591Z,3.70
2022-09-15T10:56:52.390Z,3.42
2022-09-15T10:59:38.146Z,3.38
2022-09-15T11:02:08.421Z,3.83
2022-09-15T11:04:50.882Z,3.83
2022-09-15T11:07:21.114Z,4.38
2022-09-15T11:10:01.763Z,5.20
2022-09-15T11:12:45.259Z,5.78
2022-09-15T11:15:28.196Z,5.97
2022-09-15T11:18:07.341Z,6.18
2022-09-15T11:20:51.397Z,5.22
2022-09-15T11:23:44.146Z,6.13
2022-09-15T11:26:32.619Z,5.25
2022-09-15T11:29:17.682Z,4.90
2022-09-15T11:31:50.747Z,5.53
2022-09-15T11:34:25.245Z,5.05
2022-09-15T11:37:17.242Z,4.93
2022-09-15T11:39:53.556Z,4.57
2022-09-15T11:42:31.129Z,5.18
2022-09-15T11:44:59.620Z,4.93
2022-09-15T11:47:45.057Z,4.00
2022-09-15T11:50:19.502Z,3.88
2022-09-15T11:52:52.345Z,3.40
2022-09-15T11:55:40.385Z,2.88
2022-09-15T11:58:21.823Z,3.33
2022-09-15T12:00:55.185Z,2.70
2022-09-15T12:03:28.696Z,3.03
2022-09-15T12:06:05.619Z,2.75
2022-09-15T12:08:58.071Z,3.25
2022-09-15T12:13:55.263Z,2.70
2022-09-15T12:16:23.776Z,3.17
2022-09-15T12:19:37.583Z,2.67
2022-09-15T12:22:09.772Z,2.90
2022-09-15T12:25:01.468Z,2.92
2022-09-15T12:27:29.653Z,2.50
2022-09-15T12:29:59.875Z,2.78
2022-09-15T12:32:33.322Z,2.60
2022-09-15T12:35:02.838Z,3.20
2022-09-15T12:37:37.323Z,2.85
2022-09-15T12:40:07.578Z,2.50
2022-09-15T12:42:37.083Z,2.90
2022-09-15T12:45:27.447Z,3.00
2022-09-15T12:48:03.746Z,2.90
2022-09-15T12:50:37.484Z,2.17
2022-09-15T12:53:21.105Z,2.67
2022-09-15T12:55:58.930Z,2.58
2022-09-15T12:58:32.174Z,2.50
2022-09-15T13:01:18.814Z,2.70
2022-09-15T13:03:47.498Z,2.50
2022-09-15T13:06:38.477Z,2.42
2022-09-15T13:09:05.936Z,2.42
2022-09-15T13:11:51.116Z,2.55
2022-09-15T13:14:35.696Z,2.92
2022-09-15T13:17:20.050Z,2.70
2022-09-15T13:19:50.373Z,3.13
2022-09-15T13:22:20.786Z,3.30
2022-09-15T13:25:07.033Z,3.40
2022-09-15T13:27:50.387Z,3.55
2022-09-15T13:30:21.261Z,3.47
2022-09-15T13:33:05.009Z,3.17
2022-09-15T13:35:56.780Z,3.33
2022-09-15T13:38:42.690Z,3.70
2022-09-15T13:41:24.712Z,3.80
2022-09-15T13:44:29.739Z,3.40
2022-09-15T13:47:24.976Z,3.70
2022-09-15T13:50:01.568Z,3.80
2022-09-15T13:53:00.817Z,3.45
2022-09-15T13:55:34.037Z,4.40
2022-09-15T14:00:53.890Z,3.92
2022-09-15T14:03:28.141Z,3.70
2022-09-15T14:05:57.767Z,3.80
2022-09-15T14:08:32.641Z,4.07
2022-09-15T14:11:10.723Z,3.80
2022-09-15T14:13:47.627Z,3.45
2022-09-15T14:16:28.121Z,3.90
2022-09-15T14:18:58.374Z,3.50
2022-09-15T14:21:34.557Z,3.92
2022-09-15T14:24:16.054Z,3.83
2022-09-15T14:26:43.698Z,4.40
2022-09-15T14:29:24.974Z,3.65
2022-09-15T14:31:53.306Z,3.10
2022-09-15T14:34:24.154Z,3.08
2022-09-15T14:37:12.726Z,2.60
2022-09-15T14:39:40.419Z,3.25
2022-09-15T14:42:36.043Z,3.25
2022-09-15T14:48:11.399Z,3.25
2022-09-15T14:50:38.930Z,3.17
2022-09-15T14:53:24.035Z,2.85
2022-09-15T14:56:07.659Z,3.15
2022-09-15T14:58:43.345Z,3.15
2022-09-15T15:01:45.455Z,4.15
2022-09-15T15:04:19.088Z,4.03
2022-09-15T15:06:58.852Z,3.47
2022-09-15T15:09:41.393Z,3.17
2022-09-15T15:12:20.708Z,2.67
2022-09-15T15:14:48.648Z,2.80
2022-09-15T15:17:25.242Z,2.97
2022-09-15T15:20:12.132Z,2.92
2022-09-15T15:22:41.773Z,2.72
2022-09-15T15:25:30.059Z,2.50
2022-09-15T15:27:59.176Z,1.80
2022-09-15T15:30:32.030Z,2.60
2022-09-15T15:33:06.800Z,2.40
2022-09-15T15:35:35.830Z,1.98
2022-09-15T15:38:14.072Z,2.03
2022-09-15T15:40:42.417Z,2.22
2022-09-15T15:43:25.241Z,1.90
2022-09-15T15:46:00.725Z,2.53
2022-09-15T15:48:36.911Z,2.22
2022-09-15T15:51:07.524Z,2.03
2022-09-15T15:53:35.613Z,2.47
2022-09-15T15:56:03.147Z,2.00
2022-09-15T15:58:31.344Z,2.58
2022-09-15T16:00:58.759Z,1.90
2022-09-15T16:03:26.270Z,1.45
2022-09-15T16:05:57.629Z,2.30
2022-09-15T16:08:30.046Z,1.90
2022-09-15T16:10:58.226Z,2.35
2022-09-15T16:13:26.004Z,2.08
2022-09-15T16:15:54.298Z,2.10
2022-09-15T16:18:21.784Z,1.88
2022-09-15T16:20:49.530Z,2.00
2022-09-15T16:23:19.129Z,2.30
2022-09-15T16:26:05.176Z,2.30
2022-09-15T16:28:32.663Z,2.03
2022-09-15T16:31:00.156Z,2.40
2022-09-15T16:33:27.600Z,1.80
2022-09-15T16:35:55.202Z,2.80
2022-09-15T16:38:25.962Z,2.35
2022-09-15T16:40:53.386Z,2.78
2022-09-15T16:43:22.973Z,2.85
2022-09-15T16:45:51.433Z,3.13
2022-09-15T16:48:19.420Z,2.47
2022-09-15T16:53:36.407Z,3.08
2022-09-15T16:56:04.276Z,3.13
2022-09-15T16:58:31.768Z,2.92
2022-09-15T17:00:59.331Z,2.63
2022-09-15T17:03:27.531Z,3.92
2022-09-15T17:06:00.376Z,2.72
2022-09-15T17:08:33.176Z,2.47
2022-09-15T17:11:03.269Z,2.55
2022-09-15T17:13:33.994Z,2.63
2022-09-15T17:16:02.193Z,2.35
2022-09-15T17:18:30.303Z,2.63
2022-09-15T17:20:57.893Z,3.75
2022-09-15T17:23:31.807Z,3.17
2022-09-15T17:26:01.316Z,3.97
2022-09-15T17:28:31.790Z,3.00
2022-09-15T17:31:02.267Z,3.25
2022-09-15T17:33:31.371Z,3.90
2022-09-15T17:35:59.810Z,2.63
2022-09-15T17:38:27.514Z,2.47
2022-09-15T17:40:55.525Z,3.63
2022-09-15T17:43:25.591Z,3.38
2022-09-15T17:45:53.302Z,4.05
2022-09-15T17:48:22.157Z,3.35
2022-09-15T17:50:49.709Z,2.72
2022-09-15T17:53:21.660Z,3.05
2022-09-15T17:55:50.173Z,3.08
2022-09-15T17:58:18.204Z,3.17
2022-09-15T18:00:47.613Z,3.28
2022-09-15T18:03:17.812Z,2.97
2022-09-15T18:05:45.882Z,2.90
2022-09-15T18:08:13.483Z,3.05
2022-09-15T18:10:40.857Z,3.30
2022-09-15T18:13:14.573Z,3.08
2022-09-15T18:15:42.914Z,3.38
2022-09-15T18:18:14.775Z,2.95
2022-09-15T18:20:42.798Z,2.65
2022-09-15T18:23:18.814Z,3.17
2022-09-15T18:25:47.396Z,3.00
2022-09-15T18:28:15.412Z,2.53
2022-09-15T18:30:44.719Z,2.88
2022-09-15T18:33:38.595Z,2.67
2022-09-15T18:36:07.415Z,2.90
2022-09-15T18:38:34.827Z,2.72
2022-09-15T18:41:03.792Z,2.80
2022-09-15T18:43:31.418Z,2.97
2022-09-15T18:46:00.294Z,2.22
2022-09-15T18:48:28.033Z,2.47
2022-09-15T18:50:55.946Z,2.50
2022-09-15T18:53:23.481Z,3.00
2022-09-15T18:55:50.817Z,2.60
2022-09-15T18:58:19.299Z,2.63
2022-09-15T19:00:47.145Z,2.58
2022-09-15T19:03:14.539Z,2.70
2022-09-15T19:05:41.991Z,2.65
2022-09-15T19:08:11.390Z,3.17
2022-09-15T19:10:41.552Z,3.72
2022-09-15T19:13:11.508Z,3.40
2022-09-15T19:15:39.950Z,2.90
2022-09-15T19:18:07.482Z,3.40
2022-09-15T19:20:35.123Z,6.60
2022-09-15T19:23:03.207Z,4.57
2022-09-15T19:25:30.592Z,4.28
2022-09-15T19:27:58.002Z,4.10
2022-09-15T19:30:25.461Z,4.03
2022-09-15T19:32:53.156Z,5.03
2022-09-15T19:35:21.300Z,4.03
2022-09-15T19:37:48.763Z,3.78
2022-09-15T19:40:16.857Z,6.20
2022-09-15T19:42:44.908Z,4.75
2022-09-15T19:45:13.548Z,4.75
2022-09-15T19:47:41.964Z,5.15
2022-09-15T19:50:11.738Z,5.03
2022-09-15T19:52:39.536Z,4.63
2022-09-15T19:55:09.589Z,5.25
2022-09-15T19:57:41.065Z,5.43
2022-09-15T20:00:10.852Z,5.80
2022-09-15T20:02:39.155Z,5.88
2022-09-15T20:05:07.690Z,5.20
2022-09-15T20:07:35.103Z,5.63
2022-09-15T20:10:02.701Z,6.40
2022-09-15T20:12:31.257Z,5.55
2022-09-15T20:14:58.745Z,5.82
2022-09-15T20:17:26.291Z,4.80
2022-09-15T20:19:53.776Z,5.22
2022-09-15T20:22:21.849Z,5.63
2022-09-15T20:24:49.387Z,5.13
2022-09-15T20:27:17.007Z,5.32
2022-09-15T20:29:44.400Z,5.30
2022-09-15T20:32:11.834Z,4.45
2022-09-15T20:34:39.315Z,4.80
2022-09-15T20:37:07.129Z,5.05
2022-09-15T20:39:35.379Z,4.57
2022-09-15T20:42:02.785Z,4.65
2022-09-15T20:44:30.166Z,4.13
2022-09-15T20:46:57.552Z,4.45
2022-09-15T20:49:24.979Z,3.75
2022-09-15T20:51:52.479Z,3.65
2022-09-15T20:54:20.043Z,3.88
2022-09-15T20:56:47.415Z,3.75
2022-09-15T20:59:15.201Z,4.30
2022-09-15T21:01:43.571Z,4.03
2022-09-15T21:04:11.232Z,4.50
2022-09-15T21:06:39.030Z,3.95
2022-09-15T21:09:07.234Z,4.00
2022-09-15T21:11:35.358Z,5.07
2022-09-15T21:14:03.285Z,4.10
2022-09-15T21:16:30.995Z,5.22
2022-09-15T21:18:58.784Z,4.90
2022-09-15T21:21:29.834Z,5.55
2022-09-15T21:24:01.276Z,5.05
2022-09-15T21:26:59.933Z,6.03
2022-09-15T21:29:28.464Z,5.32
2022-09-15T21:31:56.051Z,5.40
2022-09-15T21:34:24.029Z,4.97
2022-09-15T21:36:54.319Z,5.82
2022-09-15T21:39:21.697Z,5.72
2022-09-15T21:41:49.758Z,5.18
2022-09-15T21:44:17.185Z,5.10
2022-09-15T21:46:46.985Z,5.25
2022-09-15T21:49:14.713Z,4.97
2022-09-15T21:51:42.169Z,4.90
2022-09-15T21:54:10.066Z,5.00
2022-09-15T21:56:37.630Z,5.28
2022-09-15T21:59:05.311Z,4.28
2022-09-15T22:01:33.491Z,5.10
2022-09-15T22:04:03.773Z,5.10
2022-09-15T22:06:33.705Z,4.72
2022-09-15T22:09:03.978Z,4.65
2022-09-15T22:11:32.209Z,4.72
2022-09-15T22:14:02.786Z,4.57
2022-09-15T22:16:30.507Z,4.53
2022-09-15T22:18:57.995Z,4.50
2022-09-15T22:21:29.225Z,4.80
2022-09-15T22:23:57.799Z,5.85
2022-09-15T22:26:31.105Z,5.40
2022-09-15T22:29:02.339Z,4.07
2022-09-15T22:31:30.580Z,4.25
2022-09-15T22:33:58.098Z,5.00
2022-09-15T22:36:29.547Z,4.38
2022-09-15T22:39:05.478Z,4.60
2022-09-15T22:41:36.253Z,4.60
2022-09-15T22:44:04.953Z,5.18
2022-09-15T22:46:32.368Z,4.88
2022-09-15T22:49:00.293Z,4.72
2022-09-15T22:51:27.998Z,4.38
2022-09-15T22:53:57.084Z,4.63
2022-09-15T22:56:26.214Z,4.70
2022-09-15T22:58:55.557Z,4.35
2022-09-15T23:01:26.924Z,4.50
2022-09-15T23:03:57.289Z,5.07
2022-09-15T23:06:26.519Z,4.80
2022-09-15T23:09:00.070Z,4.38
2022-09-15T23:11:29.307Z,4.50
2022-09-15T23:13:56.851Z,4.60
2022-09-15T23:16:25.214Z,4.63
2022-09-15T23:18:53.865Z,4.93
2022-09-15T23:21:21.821Z,4.20
2022-09-15T23:23:49.396Z,4.45
2022-09-15T23:26:19.509Z,3.75
2022-09-15T23:28:47.622Z,4.35
2022-09-15T23:31:15.779Z,4.47
2022-09-15T23:33:43.738Z,4.70
2022-09-15T23:36:14.092Z,4.15
2022-09-15T23:38:44.193Z,4.25
2022-09-15T23:41:12.434Z,4.50
2022-09-15T23:43:40.153Z,4.45
2022-09-15T23:46:07.628Z,4.38
2022-09-15T23:48:35.228Z,5.05
2022-09-15T23:51:03.174Z,5.05
2022-09-15T23:53:30.605Z,4.97
2022-09-15T23:55:58.340Z,4.38
2022-09-15T23:58:25.721Z,4.55
